sensor_id;sensor_type;location;lat;lon;timestamp;pressure;altitude;pressure_sealevel;temperature;humidity
8627;BME280;4351;51.422;6.794;2022-08-23T00:00:04;100953.00;;;20.90;100.00
8627;BME280;4351;51.422;6.794;2022-08-23T00:02:40;100949.38;;;20.90;100.00
8627;BME280;4351;51.422;6.794;2022-08-23T00:05:09;100947.97;;;20.86;100.00
8627;BME280;4351;51.422;6.794;2022-08-23T00:07:40;100957.22;;;20.85;100.00
8627;BME280;4351;51.422;6.794;2022-08-23T00:10:10;100951.19;;;20.81;100.00
8627;BME280;4351;51.422;6.794;2022-08-23T00:12:39;100952.19;;;20.80;100.00
8627;BME280;4351;51.422;6.794;2022-08-23T00:15:10;100940.69;;;20.76;100.00
8627;BME280;4351;51.422;6.794;2022-08-23T00:17:41;100945.47;;;20.74;100.00
8627;BME280;4351;51.422;6.794;2022-08-23T00:20:12;100941.16;;;20.72;100.00
8627;BME280;4351;51.422;6.794;2022-08-23T00:22:41;100933.13;;;20.60;100.00
8627;BME280;4351;51.422;6.794;2022-08-23T00:25:11;100935.03;;;20.60;100.00
8627;BME280;4351;51.422;6.794;2022-08-23T00:27:39;100931.72;;;20.56;100.00
8627;BME280;4351;51.422;6.794;2022-08-23T00:30:09;100932.19;;;20.51;100.00
8627;BME280;4351;51.422;6.794;2022-08-23T00:32:39;100922.88;;;20.44;100.00
8627;BME280;4351;51.422;6.794;2022-08-23T00:35:10;100927.25;;;20.37;100.00
8627;BME280;4351;51.422;6.794;2022-08-23T00:37:52;100924.59;;;20.27;100.00
8627;BME280;4351;51.422;6.794;2022-08-23T00:40:41;100927.78;;;20.22;100.00
8627;BME280;4351;51.422;6.794;2022-08-23T00:43:11;100932.28;;;20.13;100.00
8627;BME280;4351;51.422;6.794;2022-08-23T00:46:02;100923.63;;;20.08;100.00
8627;BME280;4351;51.422;6.794;2022-08-23T00:48:50;100930.25;;;20.05;100.00
8627;BME280;4351;51.422;6.794;2022-08-23T00:51:26;100936.94;;;20.03;100.00
8627;BME280;4351;51.422;6.794;2022-08-23T00:54:08;100928.25;;;20.07;100.00
8627;BME280;4351;51.422;6.794;2022-08-23T00:56:38;100933.31;;;20.02;100.00
8627;BME280;4351;51.422;6.794;2022-08-23T00:59:06;100932.91;;;19.97;100.00
8627;BME280;4351;51.422;6.794;2022-08-23T01:01:35;100944.16;;;19.94;100.00
8627;BME280;4351;51.422;6.794;2022-08-23T01:04:03;100940.44;;;19.85;100.00
8627;BME280;4351;51.422;6.794;2022-08-23T01:06:37;100943.75;;;19.88;100.00
8627;BME280;4351;51.422;6.794;2022-08-23T01:09:13;100953.56;;;19.81;100.00
8627;BME280;4351;51.422;6.794;2022-08-23T01:11:47;100951.84;;;19.80;100.00
8627;BME280;4351;51.422;6.794;2022-08-23T01:14:22;100958.09;;;19.62;100.00
8627;BME280;4351;51.422;6.794;2022-08-23T01:16:55;100956.94;;;19.55;100.00
8627;BME280;4351;51.422;6.794;2022-08-23T01:19:28;100962.13;;;19.58;100.00
8627;BME280;4351;51.422;6.794;2022-08-23T01:22:04;100958.09;;;19.62;100.00
8627;BME280;4351;51.422;6.794;2022-08-23T01:24:37;100964.88;;;19.58;100.00
8627;BME280;4351;51.422;6.794;2022-08-23T01:27:26;100963.28;;;19.56;100.00
8627;BME280;4351;51.422;6.794;2022-08-23T01:29:57;100960.97;;;19.51;100.00
8627;BME280;4351;51.422;6.794;2022-08-23T01:32:25;100959.72;;;19.45;100.00
8627;BME280;4351;51.422;6.794;2022-08-23T01:34:55;100969.66;;;19.36;100.00
8627;BME280;4351;51.422;6.794;2022-08-23T01:37:23;100964.63;;;19.32;100.00
8627;BME280;4351;51.422;6.794;2022-08-23T01:39:53;100974.28;;;19.26;100.00
8627;BME280;4351;51.422;6.794;2022-08-23T01:42:22;100970.81;;;19.24;100.00
8627;BME280;4351;51.422;6.794;2022-08-23T01:44:50;100970.53;;;19.17;100.00
8627;BME280;4351;51.422;6.794;2022-08-23T01:47:18;100973.13;;;19.18;100.00
8627;BME280;4351;51.422;6.794;2022-08-23T01:49:47;100970.22;;;19.10;100.00
8627;BME280;4351;51.422;6.794;2022-08-23T01:52:15;100980.56;;;19.06;100.00
8627;BME280;4351;51.422;6.794;2022-08-23T01:54:45;100979.72;;;19.06;100.00
8627;BME280;4351;51.422;6.794;2022-08-23T01:57:15;100983.31;;;18.96;100.00
8627;BME280;4351;51.422;6.794;2022-08-23T01:59:43;100987.78;;;18.98;100.00
8627;BME280;4351;51.422;6.794;2022-08-23T02:02:12;100980.56;;;18.96;100.00
8627;BME280;4351;51.422;6.794;2022-08-23T02:04:41;100988.31;;;18.91;100.00
8627;BME280;4351;51.422;6.794;2022-08-23T02:07:10;100989.19;;;18.82;100.00
8627;BME280;4351;51.422;6.794;2022-08-23T02:09:39;100993.22;;;18.78;100.00
8627;BME280;4351;51.422;6.794;2022-08-23T02:12:08;100989.00;;;18.54;100.00
8627;BME280;4351;51.422;6.794;2022-08-23T02:14:40;100991.03;;;18.71;100.00
8627;BME280;4351;51.422;6.794;2022-08-23T02:17:17;101005.44;;;18.73;100.00
8627;BME280;4351;51.422;6.794;2022-08-23T02:19:45;100994.50;;;18.73;100.00
8627;BME280;4351;51.422;6.794;2022-08-23T02:22:14;101002.97;;;18.70;100.00
8627;BME280;4351;51.422;6.794;2022-08-23T02:24:45;101006.44;;;18.72;100.00
8627;BME280;4351;51.422;6.794;2022-08-23T02:27:15;101001.94;;;18.71;100.00
8627;BME280;4351;51.422;6.794;2022-08-23T02:29:47;101002.09;;;18.70;100.00
8627;BME280;4351;51.422;6.794;2022-08-23T02:32:18;101000.97;;;18.63;100.00
8627;BME280;4351;51.422;6.794;2022-08-23T02:34:47;101006.53;;;18.61;100.00
8627;BME280;4351;51.422;6.794;2022-08-23T02:37:31;101013.59;;;18.54;100.00
8627;BME280;4351;51.422;6.794;2022-08-23T02:40:00;101016.72;;;18.49;100.00
8627;BME280;4351;51.422;6.794;2022-08-23T02:42:30;101016.41;;;18.42;100.00
8627;BME280;4351;51.422;6.794;2022-08-23T02:45:01;101027.03;;;18.45;100.00
8627;BME280;4351;51.422;6.794;2022-08-23T02:47:31;101020.13;;;18.41;100.00
8627;BME280;4351;51.422;6.794;2022-08-23T02:50:17;101022.56;;;18.34;100.00
8627;BME280;4351;51.422;6.794;2022-08-23T02:52:46;101024.97;;;18.27;100.00
8627;BME280;4351;51.422;6.794;2022-08-23T02:55:15;101037.88;;;18.25;100.00
8627;BME280;4351;51.422;6.794;2022-08-23T02:57:43;101029.06;;;18.12;100.00
8627;BME280;4351;51.422;6.794;2022-08-23T03:00:16;101034.31;;;18.25;100.00
8627;BME280;4351;51.422;6.794;2022-08-23T03:02:47;101038.19;;;18.22;100.00
8627;BME280;4351;51.422;6.794;2022-08-23T03:05:17;101031.69;;;18.23;100.00
8627;BME280;4351;51.422;6.794;2022-08-23T03:07:45;101034.72;;;18.20;100.00
8627;BME280;4351;51.422;6.794;2022-08-23T03:10:14;101033.50;;;18.13;100.00
8627;BME280;4351;51.422;6.794;2022-08-23T03:12:50;101034.91;;;18.07;100.00
8627;BME280;4351;51.422;6.794;2022-08-23T03:15:20;101032.78;;;18.11;100.00
8627;BME280;4351;51.422;6.794;2022-08-23T03:17:48;101042.69;;;18.12;100.00
8627;BME280;4351;51.422;6.794;2022-08-23T03:20:17;101039.69;;;18.15;100.00
8627;BME280;4351;51.422;6.794;2022-08-23T03:22:47;101042.97;;;18.09;100.00
8627;BME280;4351;51.422;6.794;2022-08-23T03:25:24;101047.22;;;18.01;100.00
8627;BME280;4351;51.422;6.794;2022-08-23T03:28:02;101041.84;;;18.11;100.00
8627;BME280;4351;51.422;6.794;2022-08-23T03:30:37;101049.72;;;18.14;100.00
8627;BME280;4351;51.422;6.794;2022-08-23T03:33:09;101041.97;;;18.10;100.00
8627;BME280;4351;51.422;6.794;2022-08-23T03:35:38;101047.56;;;18.08;100.00
8627;BME280;4351;51.422;6.794;2022-08-23T03:38:09;101052.91;;;18.10;100.00
8627;BME280;4351;51.422;6.794;2022-08-23T03:40:37;101046.09;;;18.04;100.00
8627;BME280;4351;51.422;6.794;2022-08-23T03:43:05;101054.13;;;18.06;100.00
8627;BME280;4351;51.422;6.794;2022-08-23T03:45:34;101057.16;;;18.02;100.00
8627;BME280;4351;51.422;6.794;2022-08-23T03:48:04;101051.75;;;17.91;100.00
8627;BME280;4351;51.422;6.794;2022-08-23T03:50:33;101053.22;;;17.95;100.00
8627;BME280;4351;51.422;6.794;2022-08-23T03:53:02;101058.44;;;17.98;100.00
8627;BME280;4351;51.422;6.794;2022-08-23T03:55:30;101055.69;;;17.98;100.00
8627;BME280;4351;51.422;6.794;2022-08-23T03:58:08;101062.75;;;18.01;100.00
8627;BME280;4351;51.422;6.794;2022-08-23T04:00:36;101059.88;;;18.02;100.00
8627;BME280;4351;51.422;6.794;2022-08-23T04:03:06;101059.59;;;18.06;100.00
8627;BME280;4351;51.422;6.794;2022-08-23T04:05:51;101067.34;;;18.00;100.00
8627;BME280;4351;51.422;6.794;2022-08-23T04:08:20;101067.06;;;18.03;100.00
8627;BME280;4351;51.422;6.794;2022-08-23T04:10:59;101070.47;;;17.96;100.00
8627;BME280;4351;51.422;6.794;2022-08-23T04:13:27;101076.41;;;18.01;100.00
8627;BME280;4351;51.422;6.794;2022-08-23T04:15:57;101074.00;;;18.08;100.00
8627;BME280;4351;51.422;6.794;2022-08-23T04:18:30;101080.13;;;18.00;100.00
8627;BME280;4351;51.422;6.794;2022-08-23T04:21:01;101072.50;;;18.03;100.00
8627;BME280;4351;51.422;6.794;2022-08-23T04:23:32;101079.97;;;18.01;100.00
8627;BME280;4351;51.422;6.794;2022-08-23T04:26:00;101077.72;;;18.07;100.00
8627;BME280;4351;51.422;6.794;2022-08-23T04:28:31;101079.47;;;18.08;100.00
8627;BME280;4351;51.422;6.794;2022-08-23T04:31:00;101081.91;;;18.11;100.00
8627;BME280;4351;51.422;6.794;2022-08-23T04:33:32;101083.19;;;18.07;100.00
8627;BME280;4351;51.422;6.794;2022-08-23T04:36:06;101092.09;;;18.09;100.00
8627;BME280;4351;51.422;6.794;2022-08-23T04:38:35;101084.50;;;18.12;100.00
8627;BME280;4351;51.422;6.794;2022-08-23T04:41:05;101089.63;;;18.06;100.00
8627;BME280;4351;51.422;6.794;2022-08-23T04:43:54;101087.38;;;18.11;100.00
8627;BME280;4351;51.422;6.794;2022-08-23T04:46:26;101090.38;;;18.08;100.00
8627;BME280;4351;51.422;6.794;2022-08-23T04:48:59;101091.22;;;18.08;100.00
8627;BME280;4351;51.422;6.794;2022-08-23T04:51:28;101092.28;;;18.17;100.00
8627;BME280;4351;51.422;6.794;2022-08-23T04:53:56;101084.75;;;18.21;100.00
8627;BME280;4351;51.422;6.794;2022-08-23T04:56:47;101092.41;;;18.15;100.00
8627;BME280;4351;51.422;6.794;2022-08-23T04:59:20;101089.91;;;18.24;100.00
8627;BME280;4351;51.422;6.794;2022-08-23T05:01:48;101095.38;;;18.24;100.00
8627;BME280;4351;51.422;6.794;2022-08-23T05:04:19;101092.50;;;18.25;100.00
8627;BME280;4351;51.422;6.794;2022-08-23T05:06:48;101095.94;;;18.27;100.00
8627;BME280;4351;51.422;6.794;2022-08-23T05:09:20;101104.03;;;18.29;100.00
8627;BME280;4351;51.422;6.794;2022-08-23T05:11:51;101096.72;;;18.30;100.00
8627;BME280;4351;51.422;6.794;2022-08-23T05:14:20;101095.69;;;18.31;100.00
8627;BME280;4351;51.422;6.794;2022-08-23T05:16:49;101104.63;;;18.33;100.00
8627;BME280;4351;51.422;6.794;2022-08-23T05:19:19;101098.91;;;18.36;100.00
8627;BME280;4351;51.422;6.794;2022-08-23T05:21:47;101101.47;;;18.37;100.00
8627;BME280;4351;51.422;6.794;2022-08-23T05:24:24;101100.06;;;18.43;100.00
8627;BME280;4351;51.422;6.794;2022-08-23T05:26:53;101104.97;;;18.49;100.00
8627;BME280;4351;51.422;6.794;2022-08-23T05:29:22;101110.44;;;18.49;100.00
8627;BME280;4351;51.422;6.794;2022-08-23T05:31:53;101107.03;;;18.57;100.00
8627;BME280;4351;51.422;6.794;2022-08-23T05:34:27;101110.09;;;18.64;100.00
8627;BME280;4351;51.422;6.794;2022-08-23T05:36:57;101120.84;;;18.56;100.00
8627;BME280;4351;51.422;6.794;2022-08-23T05:39:33;101120.84;;;18.56;100.00
8627;BME280;4351;51.422;6.794;2022-08-23T05:42:10;101116.22;;;18.56;100.00
8627;BME280;4351;51.422;6.794;2022-08-23T05:44:40;101115.00;;;18.70;100.00
8627;BME280;4351;51.422;6.794;2022-08-23T05:47:11;101114.44;;;18.77;100.00
8627;BME280;4351;51.422;6.794;2022-08-23T05:50:09;101118.22;;;18.86;100.00
8627;BME280;4351;51.422;6.794;2022-08-23T05:52:37;101115.88;;;18.81;100.00
8627;BME280;4351;51.422;6.794;2022-08-23T05:55:07;101120.13;;;18.95;100.00
8627;BME280;4351;51.422;6.794;2022-08-23T05:57:41;101126.63;;;19.14;100.00
8627;BME280;4351;51.422;6.794;2022-08-23T06:00:10;101124.31;;;19.09;100.00
8627;BME280;4351;51.422;6.794;2022-08-23T06:02:50;101122.44;;;19.00;100.00
8627;BME280;4351;51.422;6.794;2022-08-23T06:05:21;101125.63;;;19.15;100.00
8627;BME280;4351;51.422;6.794;2022-08-23T06:07:50;101137.63;;;19.24;100.00
8627;BME280;4351;51.422;6.794;2022-08-23T06:10:21;101124.94;;;19.23;100.00
8627;BME280;4351;51.422;6.794;2022-08-23T06:13:00;101122.81;;;19.36;100.00
8627;BME280;4351;51.422;6.794;2022-08-23T06:15:29;101122.97;;;19.45;100.00
8627;BME280;4351;51.422;6.794;2022-08-23T06:17:57;101128.28;;;19.46;100.00
8627;BME280;4351;51.422;6.794;2022-08-23T06:20:28;101120.94;;;19.47;100.00
8627;BME280;4351;51.422;6.794;2022-08-23T06:23:05;101120.81;;;19.58;100.00
8627;BME280;4351;51.422;6.794;2022-08-23T06:25:35;101124.41;;;19.69;100.00
8627;BME280;4351;51.422;6.794;2022-08-23T06:28:12;101133.47;;;19.69;100.00
8627;BME280;4351;51.422;6.794;2022-08-23T06:30:41;101133.19;;;19.72;100.00
8627;BME280;4351;51.422;6.794;2022-08-23T06:33:11;101126.28;;;19.78;100.00
8627;BME280;4351;51.422;6.794;2022-08-23T06:36:06;101136.38;;;19.87;100.00
8627;BME280;4351;51.422;6.794;2022-08-23T06:38:53;101139.81;;;19.90;100.00
8627;BME280;4351;51.422;6.794;2022-08-23T06:41:51;101137.63;;;20.03;100.00
8627;BME280;4351;51.422;6.794;2022-08-23T06:44:28;101136.63;;;20.04;100.00
8627;BME280;4351;51.422;6.794;2022-08-23T06:47:11;101147.13;;;20.19;100.00
8627;BME280;4351;51.422;6.794;2022-08-23T06:49:40;101136.31;;;20.27;100.00
8627;BME280;4351;51.422;6.794;2022-08-23T06:52:45;101140.91;;;20.47;100.00
8627;BME280;4351;51.422;6.794;2022-08-23T06:55:32;101149.22;;;20.55;100.00
8627;BME280;4351;51.422;6.794;2022-08-23T06:58:30;101137.41;;;20.54;100.00
8627;BME280;4351;51.422;6.794;2022-08-23T07:01:26;101147.84;;;20.69;100.00
8627;BME280;4351;51.422;6.794;2022-08-23T07:04:22;101145.72;;;20.63;100.00
8627;BME280;4351;51.422;6.794;2022-08-23T07:07:20;101153.50;;;20.67;100.00
8627;BME280;4351;51.422;6.794;2022-08-23T07:09:51;101153.16;;;20.81;100.00
8627;BME280;4351;51.422;6.794;2022-08-23T07:12:19;101145.25;;;20.77;100.00
8627;BME280;4351;51.422;6.794;2022-08-23T07:14:48;101145.03;;;20.89;100.00
8627;BME280;4351;51.422;6.794;2022-08-23T07:17:16;101152.34;;;21.08;100.00
8627;BME280;4351;51.422;6.794;2022-08-23T07:19:48;101151.94;;;21.03;100.00
8627;BME280;4351;51.422;6.794;2022-08-23T07:22:16;101158.22;;;21.13;100.00
8627;BME280;4351;51.422;6.794;2022-08-23T07:24:47;101153.44;;;21.16;100.00
8627;BME280;4351;51.422;6.794;2022-08-23T07:27:17;101153.53;;;21.24;100.00
8627;BME280;4351;51.422;6.794;2022-08-23T07:29:55;101149.31;;;21.30;100.00
8627;BME280;4351;51.422;6.794;2022-08-23T07:32:23;101155.19;;;21.35;100.00
8627;BME280;4351;51.422;6.794;2022-08-23T07:34:56;101155.31;;;21.43;100.00
8627;BME280;4351;51.422;6.794;2022-08-23T07:37:28;101159.97;;;21.33;100.00
8627;BME280;4351;51.422;6.794;2022-08-23T07:39:58;101170.69;;;21.54;100.00
8627;BME280;4351;51.422;6.794;2022-08-23T07:42:28;101157.72;;;21.65;100.00
8627;BME280;4351;51.422;6.794;2022-08-23T07:44:56;101170.59;;;21.64;100.00
8627;BME280;4351;51.422;6.794;2022-08-23T07:47:26;101169.56;;;21.83;100.00
8627;BME280;4351;51.422;6.794;2022-08-23T07:49:59;101172.06;;;21.77;100.00
8627;BME280;4351;51.422;6.794;2022-08-23T07:52:31;101162.13;;;21.76;100.00
8627;BME280;4351;51.422;6.794;2022-08-23T07:55:00;101165.56;;;21.78;100.00
8627;BME280;4351;51.422;6.794;2022-08-23T07:57:54;101164.06;;;21.83;100.00
8627;BME280;4351;51.422;6.794;2022-08-23T08:00:32;101177.06;;;21.91;100.00
8627;BME280;4351;51.422;6.794;2022-08-23T08:03:19;101174.44;;;22.08;100.00
8627;BME280;4351;51.422;6.794;2022-08-23T08:06:08;101177.19;;;22.08;100.00
8627;BME280;4351;51.422;6.794;2022-08-23T08:08:40;101173.31;;;22.19;100.00
8627;BME280;4351;51.422;6.794;2022-08-23T08:11:11;101176.25;;;22.44;100.00
8627;BME280;4351;51.422;6.794;2022-08-23T08:13:45;101173.28;;;22.37;100.00
8627;BME280;4351;51.422;6.794;2022-08-23T08:16:23;101172.59;;;22.35;100.00
8627;BME280;4351;51.422;6.794;2022-08-23T08:18:56;101173.66;;;22.69;100.00
8627;BME280;4351;51.422;6.794;2022-08-23T08:21:44;101176.59;;;22.68;100.00
8627;BME280;4351;51.422;6.794;2022-08-23T08:24:34;101170.75;;;22.71;100.00
8627;BME280;4351;51.422;6.794;2022-08-23T08:27:07;101173.84;;;22.68;100.00
8627;BME280;4351;51.422;6.794;2022-08-23T08:29:37;101170.22;;;22.67;100.00
8627;BME280;4351;51.422;6.794;2022-08-23T08:32:08;101167.69;;;22.74;100.00
8627;BME280;4351;51.422;6.794;2022-08-23T08:34:40;101166.97;;;22.72;100.00
8627;BME280;4351;51.422;6.794;2022-08-23T08:37:10;101170.13;;;22.77;100.00
8627;BME280;4351;51.422;6.794;2022-08-23T08:39:39;101174.28;;;22.90;100.00
8627;BME280;4351;51.422;6.794;2022-08-23T08:42:23;101171.56;;;22.98;100.00
8627;BME280;4351;51.422;6.794;2022-08-23T08:45:03;101177.38;;;22.95;100.00
8627;BME280;4351;51.422;6.794;2022-08-23T08:47:44;101179.06;;;23.23;100.00
8627;BME280;4351;51.422;6.794;2022-08-23T08:50:19;101179.25;;;23.29;100.00
8627;BME280;4351;51.422;6.794;2022-08-23T08:52:59;101182.31;;;23.18;100.00
8627;BME280;4351;51.422;6.794;2022-08-23T08:56:00;101183.19;;;23.18;100.00
8627;BME280;4351;51.422;6.794;2022-08-23T08:58:40;101188.31;;;23.13;100.00
8627;BME280;4351;51.422;6.794;2022-08-23T09:01:14;101186.56;;;23.47;100.00
8627;BME280;4351;51.422;6.794;2022-08-23T09:03:43;101187.72;;;23.45;100.00
8627;BME280;4351;51.422;6.794;2022-08-23T09:06:21;101184.50;;;23.49;100.00
8627;BME280;4351;51.422;6.794;2022-08-23T09:09:05;101178.31;;;23.56;100.00
8627;BME280;4351;51.422;6.794;2022-08-23T09:11:48;101180.38;;;23.70;100.00
8627;BME280;4351;51.422;6.794;2022-08-23T09:14:34;101178.00;;;23.92;100.00
8627;BME280;4351;51.422;6.794;2022-08-23T09:17:19;101187.97;;;23.85;100.00
8627;BME280;4351;51.422;6.794;2022-08-23T09:19:54;101185.91;;;23.70;100.00
8627;BME280;4351;51.422;6.794;2022-08-23T09:22:29;101180.06;;;23.65;100.00
8627;BME280;4351;51.422;6.794;2022-08-23T09:25:08;101171.47;;;23.93;100.00
8627;BME280;4351;51.422;6.794;2022-08-23T09:27:48;101181.09;;;24.31;100.00
8627;BME280;4351;51.422;6.794;2022-08-23T09:30:18;101188.34;;;24.32;100.00
8627;BME280;4351;51.422;6.794;2022-08-23T09:32:52;101185.72;;;24.14;100.00
8627;BME280;4351;51.422;6.794;2022-08-23T09:35:33;101193.88;;;24.23;100.00
8627;BME280;4351;51.422;6.794;2022-08-23T09:38:17;101192.09;;;24.22;100.00
8627;BME280;4351;51.422;6.794;2022-08-23T09:41:02;101190.06;;;24.25;100.00
8627;BME280;4351;51.422;6.794;2022-08-23T09:44:07;101185.91;;;24.12;100.00
8627;BME280;4351;51.422;6.794;2022-08-23T09:46:36;101191.63;;;24.27;100.00
8627;BME280;4351;51.422;6.794;2022-08-23T09:49:37;101184.47;;;24.66;100.00
8627;BME280;4351;51.422;6.794;2022-08-23T09:53:04;101194.13;;;24.79;100.00
8627;BME280;4351;51.422;6.794;2022-08-23T09:56:13;101188.44;;;24.64;100.00
8627;BME280;4351;51.422;6.794;2022-08-23T09:58:46;101176.88;;;24.68;100.00
8627;BME280;4351;51.422;6.794;2022-08-23T10:01:34;101181.09;;;24.48;100.00
8627;BME280;4351;51.422;6.794;2022-08-23T10:04:13;101184.78;;;24.80;100.00
8627;BME280;4351;51.422;6.794;2022-08-23T10:06:45;101184.88;;;25.03;100.00
8627;BME280;4351;51.422;6.794;2022-08-23T10:09:24;101188.47;;;25.12;100.00
8627;BME280;4351;51.422;6.794;2022-08-23T10:12:16;101186.34;;;25.31;100.00
8627;BME280;4351;51.422;6.794;2022-08-23T10:14:53;101185.63;;;24.97;100.00
8627;BME280;4351;51.422;6.794;2022-08-23T10:17:58;101176.84;;;24.85;100.00
8627;BME280;4351;51.422;6.794;2022-08-23T10:20:34;101177.19;;;24.99;100.00
8627;BME280;4351;51.422;6.794;2022-08-23T10:23:23;101172.94;;;25.20;100.00
8627;BME280;4351;51.422;6.794;2022-08-23T10:26:02;101180.44;;;25.34;100.00
8627;BME280;4351;51.422;6.794;2022-08-23T10:28:41;101177.78;;;25.18;100.00
8627;BME280;4351;51.422;6.794;2022-08-23T10:31:34;101179.22;;;25.05;100.00
8627;BME280;4351;51.422;6.794;2022-08-23T10:34:20;101189.59;;;25.58;100.00
8627;BME280;4351;51.422;6.794;2022-08-23T10:37:12;101180.44;;;25.90;100.00
8627;BME280;4351;51.422;6.794;2022-08-23T10:39:53;101169.31;;;25.51;100.00
8627;BME280;4351;51.422;6.794;2022-08-23T10:42:37;101171.03;;;25.99;100.00
8627;BME280;4351;51.422;6.794;2022-08-23T10:45:19;101173.97;;;25.98;100.00
8627;BME280;4351;51.422;6.794;2022-08-23T10:48:26;101177.13;;;25.94;100.00
8627;BME280;4351;51.422;6.794;2022-08-23T10:51:00;101168.94;;;26.01;100.00
8627;BME280;4351;51.422;6.794;2022-08-23T10:53:35;101159.00;;;25.92;100.00
8627;BME280;4351;51.422;6.794;2022-08-23T10:56:12;101163.94;;;25.81;100.00
8627;BME280;4351;51.422;6.794;2022-08-23T10:58:57;101166.75;;;25.73;100.00
8627;BME280;4351;51.422;6.794;2022-08-23T11:01:49;101163.84;;;26.28;100.00
8627;BME280;4351;51.422;6.794;2022-08-23T11:04:26;101162.84;;;26.45;100.00
8627;BME280;4351;51.422;6.794;2022-08-23T11:07:15;101159.69;;;26.33;100.00
8627;BME280;4351;51.422;6.794;2022-08-23T11:09:51;101152.88;;;26.35;100.00
8627;BME280;4351;51.422;6.794;2022-08-23T11:12:50;101152.38;;;26.70;100.00
8627;BME280;4351;51.422;6.794;2022-08-23T11:15:42;101156.00;;;26.71;100.00
8627;BME280;4351;51.422;6.794;2022-08-23T11:18:36;101150.75;;;26.91;100.00
8627;BME280;4351;51.422;6.794;2022-08-23T11:21:10;101155.13;;;26.85;100.00
8627;BME280;4351;51.422;6.794;2022-08-23T11:24:31;101150.06;;;26.89;100.00
8627;BME280;4351;51.422;6.794;2022-08-23T11:27:07;101145.56;;;26.88;100.00
8627;BME280;4351;51.422;6.794;2022-08-23T11:29:50;101147.59;;;26.79;100.00
8627;BME280;4351;51.422;6.794;2022-08-23T11:32:46;101153.28;;;27.08;100.00
8627;BME280;4351;51.422;6.794;2022-08-23T11:35:43;101150.41;;;27.16;100.00
8627;BME280;4351;51.422;6.794;2022-08-23T11:38:16;101148.97;;;27.20;100.00
8627;BME280;4351;51.422;6.794;2022-08-23T11:41:26;101155.88;;;26.94;100.00
8627;BME280;4351;51.422;6.794;2022-08-23T11:44:22;101154.72;;;27.04;100.00
8627;BME280;4351;51.422;6.794;2022-08-23T11:47:05;101151.78;;;27.42;100.00
8627;BME280;4351;51.422;6.794;2022-08-23T11:49:51;101148.34;;;27.40;100.00
8627;BME280;4351;51.422;6.794;2022-08-23T11:52:47;101152.47;;;27.29;100.00
8627;BME280;4351;51.422;6.794;2022-08-23T11:55:33;101153.59;;;27.13;100.00
8627;BME280;4351;51.422;6.794;2022-08-23T11:58:19;101154.56;;;27.64;100.00
8627;BME280;4351;51.422;6.794;2022-08-23T12:00:56;101158.56;;;27.77;100.00
8627;BME280;4351;51.422;6.794;2022-08-23T12:03:39;101141.56;;;27.65;100.00
8627;BME280;4351;51.422;6.794;2022-08-23T12:06:38;101154.63;;;27.71;100.00
8627;BME280;4351;51.422;6.794;2022-08-23T12:09:49;101140.69;;;27.80;98.20
8627;BME280;4351;51.422;6.794;2022-08-23T12:12:27;101139.78;;;28.01;98.20
8627;BME280;4351;51.422;6.794;2022-08-23T12:15:05;101145.44;;;28.15;95.29
8627;BME280;4351;51.422;6.794;2022-08-23T12:18:05;101148.56;;;28.33;92.55
8627;BME280;4351;51.422;6.794;2022-08-23T12:20:39;101141.75;;;28.36;92.31
8627;BME280;4351;51.422;6.794;2022-08-23T12:23:18;101140.28;;;28.40;94.31
8627;BME280;4351;51.422;6.794;2022-08-23T12:26:05;101134.13;;;28.74;95.86
8627;BME280;4351;51.422;6.794;2022-08-23T12:28:41;101146.66;;;28.63;92.61
8627;BME280;4351;51.422;6.794;2022-08-23T12:31:26;101141.00;;;28.85;90.42
8627;BME280;4351;51.422;6.794;2022-08-23T12:34:11;101139.63;;;28.67;90.29
8627;BME280;4351;51.422;6.794;2022-08-23T12:36:55;101146.19;;;29.01;87.81
8627;BME280;4351;51.422;6.794;2022-08-23T12:39:33;101142.75;;;28.99;88.55
8627;BME280;4351;51.422;6.794;2022-08-23T12:42:09;101136.59;;;29.04;92.85
8627;BME280;4351;51.422;6.794;2022-08-23T12:44:59;101138.13;;;29.20;91.38
8627;BME280;4351;51.422;6.794;2022-08-23T12:47:33;101143.13;;;29.38;88.42
8627;BME280;4351;51.422;6.794;2022-08-23T12:50:21;101137.28;;;29.13;95.17
8627;BME280;4351;51.422;6.794;2022-08-23T12:53:03;101136.81;;;29.09;96.99
8627;BME280;4351;51.422;6.794;2022-08-23T12:56:10;101150.13;;;29.27;96.94
8627;BME280;4351;51.422;6.794;2022-08-23T12:59:00;101142.44;;;29.30;90.17
8627;BME280;4351;51.422;6.794;2022-08-23T13:01:32;101141.41;;;29.31;93.85
8627;BME280;4351;51.422;6.794;2022-08-23T13:04:07;101136.94;;;29.50;89.70
8627;BME280;4351;51.422;6.794;2022-08-23T13:06:41;101146.31;;;29.42;90.91
8627;BME280;4351;51.422;6.794;2022-08-23T13:09:29;101138.38;;;29.25;89.52
8627;BME280;4351;51.422;6.794;2022-08-23T13:11:59;101143.34;;;29.37;90.45
8627;BME280;4351;51.422;6.794;2022-08-23T13:14:42;101139.88;;;29.21;94.83
8627;BME280;4351;51.422;6.794;2022-08-23T13:17:14;101143.28;;;29.23;94.00
8627;BME280;4351;51.422;6.794;2022-08-23T13:19:52;101141.28;;;29.03;94.62
8627;BME280;4351;51.422;6.794;2022-08-23T13:22:25;101137.56;;;28.83;95.01
8627;BME280;4351;51.422;6.794;2022-08-23T13:24:59;101137.13;;;28.86;99.11
8627;BME280;4351;51.422;6.794;2022-08-23T13:27:51;101142.41;;;29.16;98.67
8627;BME280;4351;51.422;6.794;2022-08-23T13:30:23;101143.25;;;29.10;100.00
8627;BME280;4351;51.422;6.794;2022-08-23T13:33:16;101145.03;;;29.38;100.00
8627;BME280;4351;51.422;6.794;2022-08-23T13:35:48;101146.91;;;29.17;100.00
8627;BME280;4351;51.422;6.794;2022-08-23T13:38:29;101153.78;;;29.35;97.03
8627;BME280;4351;51.422;6.794;2022-08-23T13:41:01;101141.22;;;29.53;96.53
8627;BME280;4351;51.422;6.794;2022-08-23T13:43:37;101137.81;;;29.64;97.60
8627;BME280;4351;51.422;6.794;2022-08-23T13:46:12;101146.72;;;29.25;95.93
8627;BME280;4351;51.422;6.794;2022-08-23T13:48:50;101139.81;;;29.08;100.00
8627;BME280;4351;51.422;6.794;2022-08-23T13:51:29;101140.38;;;28.96;100.00
8627;BME280;4351;51.422;6.794;2022-08-23T13:54:05;101143.16;;;28.96;100.00